sensor_id;sensor_type;location;lat;lon;timestamp;P1;durP1;ratioP1;P2;durP2;ratioP2
5752;SDS011;2901;42.140;24.760;2024-01-06T00:00:50;87.18;;;54.90;;
5752;SDS011;2901;42.140;24.760;2024-01-06T00:03:15;98.25;;;53.33;;
5752;SDS011;2901;42.140;24.760;2024-01-06T00:05:41;102.85;;;64.95;;
5752;SDS011;2901;42.140;24.760;2024-01-06T00:08:06;125.75;;;79.68;;
5752;SDS011;2901;42.140;24.760;2024-01-06T00:10:31;124.28;;;80.43;;
5752;SDS011;2901;42.140;24.760;2024-01-06T00:12:57;124.18;;;80.35;;
5752;SDS011;2901;42.140;24.760;2024-01-06T00:15:22;126.47;;;77.90;;
5752;SDS011;2901;42.140;24.760;2024-01-06T00:17:48;113.75;;;74.25;;
5752;SDS011;2901;42.140;24.760;2024-01-06T00:20:14;99.97;;;66.90;;
5752;SDS011;2901;42.140;24.760;2024-01-06T00:22:39;100.70;;;65.88;;
5752;SDS011;2901;42.140;24.760;2024-01-06T00:25:06;106.00;;;68.97;;
5752;SDS011;2901;42.140;24.760;2024-01-06T00:27:32;111.65;;;69.50;;
5752;SDS011;2901;42.140;24.760;2024-01-06T00:29:57;103.05;;;67.63;;
5752;SDS011;2901;42.140;24.760;2024-01-06T00:32:22;117.53;;;68.73;;
5752;SDS011;2901;42.140;24.760;2024-01-06T00:34:48;105.97;;;66.78;;
5752;SDS011;2901;42.140;24.760;2024-01-06T00:37:13;105.97;;;69.18;;
5752;SDS011;2901;42.140;24.760;2024-01-06T00:39:39;101.85;;;63.53;;
5752;SDS011;2901;42.140;24.760;2024-01-06T00:42:04;104.72;;;61.75;;
5752;SDS011;2901;42.140;24.760;2024-01-06T00:44:29;96.50;;;57.90;;
5752;SDS011;2901;42.140;24.760;2024-01-06T00:46:55;83.43;;;53.38;;
5752;SDS011;2901;42.140;24.760;2024-01-06T00:49:20;79.80;;;50.45;;
5752;SDS011;2901;42.140;24.760;2024-01-06T00:51:46;79.88;;;46.67;;
5752;SDS011;2901;42.140;24.760;2024-01-06T00:54:11;73.85;;;47.88;;
5752;SDS011;2901;42.140;24.760;2024-01-06T00:56:37;72.70;;;49.08;;
5752;SDS011;2901;42.140;24.760;2024-01-06T00:59:02;63.63;;;42.90;;
5752;SDS011;2901;42.140;24.760;2024-01-06T01:01:27;59.38;;;38.67;;
5752;SDS011;2901;42.140;24.760;2024-01-06T01:03:53;62.75;;;38.28;;
5752;SDS011;2901;42.140;24.760;2024-01-06T01:06:18;60.05;;;37.95;;
5752;SDS011;2901;42.140;24.760;2024-01-06T01:08:44;69.78;;;38.58;;
5752;SDS011;2901;42.140;24.760;2024-01-06T01:11:10;63.40;;;35.85;;
5752;SDS011;2901;42.140;24.760;2024-01-06T01:13:35;63.72;;;37.03;;
5752;SDS011;2901;42.140;24.760;2024-01-06T01:16:01;59.95;;;37.88;;
5752;SDS011;2901;42.140;24.760;2024-01-06T01:18:27;60.03;;;36.00;;
5752;SDS011;2901;42.140;24.760;2024-01-06T01:20:53;70.78;;;37.50;;
5752;SDS011;2901;42.140;24.760;2024-01-06T01:23:18;54.78;;;35.10;;
5752;SDS011;2901;42.140;24.760;2024-01-06T01:25:44;64.28;;;36.33;;
5752;SDS011;2901;42.140;24.760;2024-01-06T01:28:09;60.05;;;34.47;;
5752;SDS011;2901;42.140;24.760;2024-01-06T01:30:34;51.90;;;31.70;;
5752;SDS011;2901;42.140;24.760;2024-01-06T01:33:00;51.22;;;32.72;;
5752;SDS011;2901;42.140;24.760;2024-01-06T01:35:25;49.90;;;31.80;;
5752;SDS011;2901;42.140;24.760;2024-01-06T01:37:51;48.88;;;32.25;;
5752;SDS011;2901;42.140;24.760;2024-01-06T01:40:16;56.10;;;32.97;;
5752;SDS011;2901;42.140;24.760;2024-01-06T01:42:44;49.27;;;30.93;;
5752;SDS011;2901;42.140;24.760;2024-01-06T01:45:10;54.63;;;33.05;;
5752;SDS011;2901;42.140;24.760;2024-01-06T01:47:36;56.50;;;34.35;;
5752;SDS011;2901;42.140;24.760;2024-01-06T01:50:02;58.17;;;33.72;;
5752;SDS011;2901;42.140;24.760;2024-01-06T01:52:28;49.13;;;31.30;;
5752;SDS011;2901;42.140;24.760;2024-01-06T01:54:55;48.75;;;31.63;;
5752;SDS011;2901;42.140;24.760;2024-01-06T01:57:22;63.13;;;32.55;;
5752;SDS011;2901;42.140;24.760;2024-01-06T01:59:50;54.80;;;32.15;;
5752;SDS011;2901;42.140;24.760;2024-01-06T02:02:17;46.92;;;31.60;;
5752;SDS011;2901;42.140;24.760;2024-01-06T02:04:44;57.40;;;33.72;;
5752;SDS011;2901;42.140;24.760;2024-01-06T02:07:10;48.72;;;33.40;;
5752;SDS011;2901;42.140;24.760;2024-01-06T02:09:35;57.78;;;32.60;;
5752;SDS011;2901;42.140;24.760;2024-01-06T02:12:01;52.38;;;32.67;;
5752;SDS011;2901;42.140;24.760;2024-01-06T02:14:27;53.05;;;32.55;;
5752;SDS011;2901;42.140;24.760;2024-01-06T02:16:53;46.03;;;30.25;;
5752;SDS011;2901;42.140;24.760;2024-01-06T02:19:18;51.60;;;32.50;;
5752;SDS011;2901;42.140;24.760;2024-01-06T02:21:48;46.92;;;27.75;;
5752;SDS011;2901;42.140;24.760;2024-01-06T02:24:19;44.67;;;28.30;;
5752;SDS011;2901;42.140;24.760;2024-01-06T02:26:45;32.60;;;22.03;;
5752;SDS011;2901;42.140;24.760;2024-01-06T02:29:11;33.03;;;21.80;;
5752;SDS011;2901;42.140;24.760;2024-01-06T02:31:36;34.40;;;20.93;;
5752;SDS011;2901;42.140;24.760;2024-01-06T02:34:01;29.40;;;19.20;;
5752;SDS011;2901;42.140;24.760;2024-01-06T02:36:27;27.73;;;19.47;;
5752;SDS011;2901;42.140;24.760;2024-01-06T02:38:52;27.97;;;17.70;;
5752;SDS011;2901;42.140;24.760;2024-01-06T02:41:18;24.58;;;17.13;;
5752;SDS011;2901;42.140;24.760;2024-01-06T02:43:43;26.10;;;17.50;;
5752;SDS011;2901;42.140;24.760;2024-01-06T02:46:08;26.05;;;18.15;;
5752;SDS011;2901;42.140;24.760;2024-01-06T02:48:34;25.52;;;16.55;;
5752;SDS011;2901;42.140;24.760;2024-01-06T02:50:59;22.13;;;16.10;;
5752;SDS011;2901;42.140;24.760;2024-01-06T02:53:24;23.48;;;17.25;;
5752;SDS011;2901;42.140;24.760;2024-01-06T02:55:50;25.37;;;16.27;;
5752;SDS011;2901;42.140;24.760;2024-01-06T02:58:15;25.90;;;16.40;;
5752;SDS011;2901;42.140;24.760;2024-01-06T03:00:40;31.43;;;16.83;;
5752;SDS011;2901;42.140;24.760;2024-01-06T03:03:06;25.10;;;16.30;;
5752;SDS011;2901;42.140;24.760;2024-01-06T03:05:31;23.13;;;15.83;;
5752;SDS011;2901;42.140;24.760;2024-01-06T03:07:56;22.03;;;14.70;;
5752;SDS011;2901;42.140;24.760;2024-01-06T03:10:22;26.00;;;15.90;;
5752;SDS011;2901;42.140;24.760;2024-01-06T03:12:47;22.10;;;15.60;;
5752;SDS011;2901;42.140;24.760;2024-01-06T03:15:13;30.77;;;16.70;;
5752;SDS011;2901;42.140;24.760;2024-01-06T03:17:38;25.63;;;16.30;;
5752;SDS011;2901;42.140;24.760;2024-01-06T03:20:04;27.03;;;16.90;;
5752;SDS011;2901;42.140;24.760;2024-01-06T03:22:30;29.10;;;16.30;;
5752;SDS011;2901;42.140;24.760;2024-01-06T03:24:55;27.00;;;14.97;;
5752;SDS011;2901;42.140;24.760;2024-01-06T03:27:21;22.17;;;15.20;;
5752;SDS011;2901;42.140;24.760;2024-01-06T03:29:46;25.33;;;16.63;;
5752;SDS011;2901;42.140;24.760;2024-01-06T03:32:11;18.77;;;15.25;;
5752;SDS011;2901;42.140;24.760;2024-01-06T03:34:37;25.10;;;15.40;;
5752;SDS011;2901;42.140;24.760;2024-01-06T03:37:02;23.97;;;16.13;;
5752;SDS011;2901;42.140;24.760;2024-01-06T03:39:28;22.43;;;16.40;;
5752;SDS011;2901;42.140;24.760;2024-01-06T03:41:53;24.97;;;15.50;;
5752;SDS011;2901;42.140;24.760;2024-01-06T03:44:18;25.70;;;15.43;;
5752;SDS011;2901;42.140;24.760;2024-01-06T03:46:44;25.38;;;15.57;;
5752;SDS011;2901;42.140;24.760;2024-01-06T03:49:09;18.85;;;14.65;;
5752;SDS011;2901;42.140;24.760;2024-01-06T03:51:35;20.70;;;13.82;;
5752;SDS011;2901;42.140;24.760;2024-01-06T03:54:00;18.40;;;13.23;;
5752;SDS011;2901;42.140;24.760;2024-01-06T03:56:25;25.95;;;14.18;;
5752;SDS011;2901;42.140;24.760;2024-01-06T03:58:51;18.85;;;13.50;;
5752;SDS011;2901;42.140;24.760;2024-01-06T04:01:16;22.77;;;14.18;;
5752;SDS011;2901;42.140;24.760;2024-01-06T04:03:41;20.07;;;13.80;;
5752;SDS011;2901;42.140;24.760;2024-01-06T04:06:07;23.35;;;13.77;;
5752;SDS011;2901;42.140;24.760;2024-01-06T04:08:32;18.48;;;14.43;;
5752;SDS011;2901;42.140;24.760;2024-01-06T04:10:58;21.83;;;14.32;;
5752;SDS011;2901;42.140;24.760;2024-01-06T04:13:23;19.05;;;14.57;;
5752;SDS011;2901;42.140;24.760;2024-01-06T04:15:50;22.00;;;14.55;;
5752;SDS011;2901;42.140;24.760;2024-01-06T04:18:15;20.15;;;13.85;;
5752;SDS011;2901;42.140;24.760;2024-01-06T04:20:41;23.70;;;14.57;;
5752;SDS011;2901;42.140;24.760;2024-01-06T04:23:06;21.75;;;12.90;;
5752;SDS011;2901;42.140;24.760;2024-01-06T04:25:32;24.95;;;15.25;;
5752;SDS011;2901;42.140;24.760;2024-01-06T04:27:57;30.17;;;17.02;;
5752;SDS011;2901;42.140;24.760;2024-01-06T04:30:22;23.92;;;16.50;;
5752;SDS011;2901;42.140;24.760;2024-01-06T04:32:49;18.65;;;13.55;;
5752;SDS011;2901;42.140;24.760;2024-01-06T04:35:14;19.23;;;13.32;;
5752;SDS011;2901;42.140;24.760;2024-01-06T04:37:40;22.03;;;13.83;;
5752;SDS011;2901;42.140;24.760;2024-01-06T04:40:06;16.13;;;13.20;;
5752;SDS011;2901;42.140;24.760;2024-01-06T04:42:33;19.70;;;13.27;;
5752;SDS011;2901;42.140;24.760;2024-01-06T04:44:58;19.40;;;12.90;;
5752;SDS011;2901;42.140;24.760;2024-01-06T04:47:23;18.37;;;12.93;;
5752;SDS011;2901;42.140;24.760;2024-01-06T04:49:49;19.07;;;12.50;;
5752;SDS011;2901;42.140;24.760;2024-01-06T04:52:15;17.87;;;12.10;;
5752;SDS011;2901;42.140;24.760;2024-01-06T04:54:40;15.83;;;11.90;;
5752;SDS011;2901;42.140;24.760;2024-01-06T04:57:06;13.90;;;11.67;;
5752;SDS011;2901;42.140;24.760;2024-01-06T04:59:31;14.13;;;11.67;;
5752;SDS011;2901;42.140;24.760;2024-01-06T05:01:57;14.63;;;10.30;;
5752;SDS011;2901;42.140;24.760;2024-01-06T05:04:23;16.33;;;10.93;;
5752;SDS011;2901;42.140;24.760;2024-01-06T05:06:48;12.18;;;10.73;;
5752;SDS011;2901;42.140;24.760;2024-01-06T05:09:15;12.97;;;9.90;;
5752;SDS011;2901;42.140;24.760;2024-01-06T05:11:40;12.18;;;10.88;;
5752;SDS011;2901;42.140;24.760;2024-01-06T05:14:08;12.27;;;11.00;;
5752;SDS011;2901;42.140;24.760;2024-01-06T05:16:34;18.13;;;11.63;;
5752;SDS011;2901;42.140;24.760;2024-01-06T05:18:59;12.23;;;10.95;;
5752;SDS011;2901;42.140;24.760;2024-01-06T05:21:25;16.10;;;13.18;;
5752;SDS011;2901;42.140;24.760;2024-01-06T05:23:50;24.95;;;12.82;;
5752;SDS011;2901;42.140;24.760;2024-01-06T05:26:16;18.92;;;11.38;;
5752;SDS011;2901;42.140;24.760;2024-01-06T05:28:41;13.20;;;10.57;;
5752;SDS011;2901;42.140;24.760;2024-01-06T05:31:07;19.05;;;11.60;;
5752;SDS011;2901;42.140;24.760;2024-01-06T05:33:32;17.15;;;10.35;;
5752;SDS011;2901;42.140;24.760;2024-01-06T05:35:57;14.67;;;10.40;;
5752;SDS011;2901;42.140;24.760;2024-01-06T05:38:23;14.10;;;10.93;;
5752;SDS011;2901;42.140;24.760;2024-01-06T05:40:48;11.88;;;10.65;;
5752;SDS011;2901;42.140;24.760;2024-01-06T05:43:14;10.77;;;9.37;;
5752;SDS011;2901;42.140;24.760;2024-01-06T05:45:39;14.93;;;10.20;;
5752;SDS011;2901;42.140;24.760;2024-01-06T05:48:09;13.97;;;9.30;;
5752;SDS011;2901;42.140;24.760;2024-01-06T05:50:35;11.23;;;10.07;;
5752;SDS011;2901;42.140;24.760;2024-01-06T05:53:01;15.00;;;10.38;;
5752;SDS011;2901;42.140;24.760;2024-01-06T05:55:27;11.20;;;10.30;;
5752;SDS011;2901;42.140;24.760;2024-01-06T05:57:52;12.10;;;9.70;;
5752;SDS011;2901;42.140;24.760;2024-01-06T06:00:18;17.05;;;10.20;;
5752;SDS011;2901;42.140;24.760;2024-01-06T06:02:44;13.40;;;10.27;;
5752;SDS011;2901;42.140;24.760;2024-01-06T06:05:09;14.07;;;11.23;;
5752;SDS011;2901;42.140;24.760;2024-01-06T06:07:35;15.97;;;12.57;;
5752;SDS011;2901;42.140;24.760;2024-01-06T06:10:05;12.50;;;9.67;;
5752;SDS011;2901;42.140;24.760;2024-01-06T06:12:35;14.80;;;9.73;;
5752;SDS011;2901;42.140;24.760;2024-01-06T06:15:01;13.90;;;10.10;;
5752;SDS011;2901;42.140;24.760;2024-01-06T06:17:31;28.63;;;15.20;;
5752;SDS011;2901;42.140;24.760;2024-01-06T06:19:57;15.25;;;10.43;;
5752;SDS011;2901;42.140;24.760;2024-01-06T06:22:22;15.25;;;10.57;;
5752;SDS011;2901;42.140;24.760;2024-01-06T06:24:48;16.37;;;10.23;;
5752;SDS011;2901;42.140;24.760;2024-01-06T06:27:14;14.88;;;10.40;;
5752;SDS011;2901;42.140;24.760;2024-01-06T06:29:39;16.33;;;11.10;;
5752;SDS011;2901;42.140;24.760;2024-01-06T06:32:04;18.13;;;11.20;;
5752;SDS011;2901;42.140;24.760;2024-01-06T06:34:30;17.20;;;11.73;;
5752;SDS011;2901;42.140;24.760;2024-01-06T06:36:55;16.03;;;10.67;;
5752;SDS011;2901;42.140;24.760;2024-01-06T06:39:21;23.10;;;11.50;;
5752;SDS011;2901;42.140;24.760;2024-01-06T06:41:46;12.05;;;10.77;;
5752;SDS011;2901;42.140;24.760;2024-01-06T06:44:11;11.90;;;10.68;;
5752;SDS011;2901;42.140;24.760;2024-01-06T06:46:37;12.40;;;10.80;;
5752;SDS011;2901;42.140;24.760;2024-01-06T06:49:02;13.32;;;11.18;;
5752;SDS011;2901;42.140;24.760;2024-01-06T06:51:28;16.05;;;11.80;;
5752;SDS011;2901;42.140;24.760;2024-01-06T06:53:55;15.67;;;11.93;;
5752;SDS011;2901;42.140;24.760;2024-01-06T06:56:21;17.98;;;12.75;;
5752;SDS011;2901;42.140;24.760;2024-01-06T06:58:46;15.70;;;11.17;;
5752;SDS011;2901;42.140;24.760;2024-01-06T07:01:13;16.52;;;12.43;;
5752;SDS011;2901;42.140;24.760;2024-01-06T07:03:41;13.95;;;12.10;;
5752;SDS011;2901;42.140;24.760;2024-01-06T07:06:07;13.85;;;10.90;;
5752;SDS011;2901;42.140;24.760;2024-01-06T07:08:32;15.95;;;12.38;;
5752;SDS011;2901;42.140;24.760;2024-01-06T07:10:58;12.97;;;11.33;;
5752;SDS011;2901;42.140;24.760;2024-01-06T07:13:23;20.13;;;12.40;;
5752;SDS011;2901;42.140;24.760;2024-01-06T07:15:49;14.68;;;12.88;;
5752;SDS011;2901;42.140;24.760;2024-01-06T07:18:14;21.67;;;13.57;;
5752;SDS011;2901;42.140;24.760;2024-01-06T07:20:39;19.20;;;13.67;;
5752;SDS011;2901;42.140;24.760;2024-01-06T07:23:05;19.08;;;13.50;;
5752;SDS011;2901;42.140;24.760;2024-01-06T07:25:30;19.77;;;13.27;;
5752;SDS011;2901;42.140;24.760;2024-01-06T07:27:55;15.47;;;12.30;;
5752;SDS011;2901;42.140;24.760;2024-01-06T07:30:21;14.70;;;12.00;;
5752;SDS011;2901;42.140;24.760;2024-01-06T07:32:47;18.67;;;11.77;;
5752;SDS011;2901;42.140;24.760;2024-01-06T07:35:14;19.35;;;13.10;;
5752;SDS011;2901;42.140;24.760;2024-01-06T07:37:40;18.48;;;11.98;;
5752;SDS011;2901;42.140;24.760;2024-01-06T07:40:06;17.52;;;12.98;;
5752;SDS011;2901;42.140;24.760;2024-01-06T07:42:32;18.50;;;13.25;;
5752;SDS011;2901;42.140;24.760;2024-01-06T07:44:57;21.53;;;13.33;;
5752;SDS011;2901;42.140;24.760;2024-01-06T07:47:22;22.45;;;13.77;;
5752;SDS011;2901;42.140;24.760;2024-01-06T07:49:49;20.48;;;14.77;;
5752;SDS011;2901;42.140;24.760;2024-01-06T07:52:14;23.75;;;16.55;;
5752;SDS011;2901;42.140;24.760;2024-01-06T07:54:40;22.30;;;17.02;;
5752;SDS011;2901;42.140;24.760;2024-01-06T07:57:05;24.92;;;15.57;;
5752;SDS011;2901;42.140;24.760;2024-01-06T07:59:30;36.13;;;18.13;;
5752;SDS011;2901;42.140;24.760;2024-01-06T08:01:56;31.67;;;16.42;;
5752;SDS011;2901;42.140;24.760;2024-01-06T08:04:21;28.05;;;16.50;;
5752;SDS011;2901;42.140;24.760;2024-01-06T08:06:47;34.55;;;17.63;;
5752;SDS011;2901;42.140;24.760;2024-01-06T08:09:12;29.98;;;17.48;;
5752;SDS011;2901;42.140;24.760;2024-01-06T08:11:37;33.03;;;16.98;;
5752;SDS011;2901;42.140;24.760;2024-01-06T08:14:04;31.67;;;17.60;;
5752;SDS011;2901;42.140;24.760;2024-01-06T08:16:29;26.80;;;17.38;;
5752;SDS011;2901;42.140;24.760;2024-01-06T08:18:54;33.25;;;16.20;;
5752;SDS011;2901;42.140;24.760;2024-01-06T08:21:20;35.22;;;17.92;;
5752;SDS011;2901;42.140;24.760;2024-01-06T08:23:45;28.75;;;17.20;;
5752;SDS011;2901;42.140;24.760;2024-01-06T08:26:10;25.95;;;17.13;;
5752;SDS011;2901;42.140;24.760;2024-01-06T08:28:36;28.42;;;17.50;;
5752;SDS011;2901;42.140;24.760;2024-01-06T08:31:02;29.08;;;17.00;;
5752;SDS011;2901;42.140;24.760;2024-01-06T08:33:27;41.15;;;17.83;;
5752;SDS011;2901;42.140;24.760;2024-01-06T08:35:53;49.60;;;22.80;;
5752;SDS011;2901;42.140;24.760;2024-01-06T08:38:18;46.42;;;22.70;;
5752;SDS011;2901;42.140;24.760;2024-01-06T08:40:44;47.53;;;23.45;;
5752;SDS011;2901;42.140;24.760;2024-01-06T08:43:12;37.53;;;21.02;;
5752;SDS011;2901;42.140;24.760;2024-01-06T08:45:38;36.60;;;20.25;;
5752;SDS011;2901;42.140;24.760;2024-01-06T08:48:03;25.23;;;18.70;;
5752;SDS011;2901;42.140;24.760;2024-01-06T08:50:29;31.80;;;19.58;;
5752;SDS011;2901;42.140;24.760;2024-01-06T08:52:54;26.83;;;18.45;;
5752;SDS011;2901;42.140;24.760;2024-01-06T08:55:20;30.50;;;19.42;;
5752;SDS011;2901;42.140;24.760;2024-01-06T08:57:45;38.45;;;20.33;;
5752;SDS011;2901;42.140;24.760;2024-01-06T09:00:11;33.28;;;21.20;;
5752;SDS011;2901;42.140;24.760;2024-01-06T09:02:37;39.53;;;19.35;;
5752;SDS011;2901;42.140;24.760;2024-01-06T09:05:03;41.95;;;22.05;;
5752;SDS011;2901;42.140;24.760;2024-01-06T09:07:29;41.97;;;21.23;;
5752;SDS011;2901;42.140;24.760;2024-01-06T09:09:54;44.13;;;21.48;;
5752;SDS011;2901;42.140;24.760;2024-01-06T09:12:20;52.58;;;22.38;;
5752;SDS011;2901;42.140;24.760;2024-01-06T09:14:46;38.00;;;21.77;;
5752;SDS011;2901;42.140;24.760;2024-01-06T09:17:11;46.70;;;22.33;;
5752;SDS011;2901;42.140;24.760;2024-01-06T09:19:37;42.58;;;23.67;;
5752;SDS011;2901;42.140;24.760;2024-01-06T09:22:02;52.90;;;24.63;;
5752;SDS011;2901;42.140;24.760;2024-01-06T09:24:28;38.35;;;24.58;;
5752;SDS011;2901;42.140;24.760;2024-01-06T09:26:53;45.35;;;21.98;;
5752;SDS011;2901;42.140;24.760;2024-01-06T09:29:19;54.03;;;24.20;;
5752;SDS011;2901;42.140;24.760;2024-01-06T09:31:45;60.00;;;24.70;;
5752;SDS011;2901;42.140;24.760;2024-01-06T09:34:10;48.33;;;24.38;;
5752;SDS011;2901;42.140;24.760;2024-01-06T09:36:37;45.65;;;23.98;;
5752;SDS011;2901;42.140;24.760;2024-01-06T09:39:02;37.22;;;23.67;;
5752;SDS011;2901;42.140;24.760;2024-01-06T09:41:29;51.90;;;24.50;;
5752;SDS011;2901;42.140;24.760;2024-01-06T09:43:55;48.75;;;23.55;;
5752;SDS011;2901;42.140;24.760;2024-01-06T09:46:23;46.03;;;20.75;;
5752;SDS011;2901;42.140;24.760;2024-01-06T09:48:51;58.45;;;23.67;;
5752;SDS011;2901;42.140;24.760;2024-01-06T09:51:20;59.42;;;24.38;;
5752;SDS011;2901;42.140;24.760;2024-01-06T09:53:48;33.92;;;20.70;;
5752;SDS011;2901;42.140;24.760;2024-01-06T09:56:16;60.92;;;22.98;;
5752;SDS011;2901;42.140;24.760;2024-01-06T09:58:42;51.85;;;22.67;;
5752;SDS011;2901;42.140;24.760;2024-01-06T10:01:09;47.80;;;23.50;;
5752;SDS011;2901;42.140;24.760;2024-01-06T10:03:36;57.30;;;25.05;;
5752;SDS011;2901;42.140;24.760;2024-01-06T10:06:02;60.78;;;23.35;;
5752;SDS011;2901;42.140;24.760;2024-01-06T10:08:29;63.53;;;23.55;;
5752;SDS011;2901;42.140;24.760;2024-01-06T10:10:55;49.45;;;22.88;;
5752;SDS011;2901;42.140;24.760;2024-01-06T10:13:20;42.22;;;22.65;;
5752;SDS011;2901;42.140;24.760;2024-01-06T10:15:46;42.85;;;21.73;;
5752;SDS011;2901;42.140;24.760;2024-01-06T10:18:11;51.17;;;21.92;;
5752;SDS011;2901;42.140;24.760;2024-01-06T10:20:38;48.58;;;22.83;;
5752;SDS011;2901;42.140;24.760;2024-01-06T10:23:06;52.40;;;22.77;;
5752;SDS011;2901;42.140;24.760;2024-01-06T10:25:32;59.55;;;24.63;;
5752;SDS011;2901;42.140;24.760;2024-01-06T10:28:00;48.45;;;22.95;;
5752;SDS011;2901;42.140;24.760;2024-01-06T10:30:26;51.00;;;22.65;;
5752;SDS011;2901;42.140;24.760;2024-01-06T10:32:52;41.72;;;20.15;;
5752;SDS011;2901;42.140;24.760;2024-01-06T10:35:18;39.55;;;21.00;;
5752;SDS011;2901;42.140;24.760;2024-01-06T10:37:43;40.53;;;20.00;;
5752;SDS011;2901;42.140;24.760;2024-01-06T10:40:14;39.00;;;18.95;;
5752;SDS011;2901;42.140;24.760;2024-01-06T10:42:41;41.35;;;19.73;;
5752;SDS011;2901;42.140;24.760;2024-01-06T10:45:08;39.03;;;19.05;;
5752;SDS011;2901;42.140;24.760;2024-01-06T10:47:35;45.83;;;20.92;;
5752;SDS011;2901;42.140;24.760;2024-01-06T10:50:05;45.63;;;19.67;;
5752;SDS011;2901;42.140;24.760;2024-01-06T10:52:31;45.35;;;19.20;;
5752;SDS011;2901;42.140;24.760;2024-01-06T10:54:57;41.90;;;19.63;;
5752;SDS011;2901;42.140;24.760;2024-01-06T10:57:23;46.83;;;19.85;;
5752;SDS011;2901;42.140;24.760;2024-01-06T10:59:50;36.92;;;17.80;;
5752;SDS011;2901;42.140;24.760;2024-01-06T11:02:16;38.63;;;16.50;;
5752;SDS011;2901;42.140;24.760;2024-01-06T11:04:45;40.53;;;18.88;;
5752;SDS011;2901;42.140;24.760;2024-01-06T11:07:15;32.78;;;17.40;;
5752;SDS011;2901;42.140;24.760;2024-01-06T11:09:44;35.25;;;18.23;;
5752;SDS011;2901;42.140;24.760;2024-01-06T11:12:16;33.90;;;16.17;;
5752;SDS011;2901;42.140;24.760;2024-01-06T11:14:41;25.05;;;13.30;;
5752;SDS011;2901;42.140;24.760;2024-01-06T11:17:07;32.53;;;16.13;;
5752;SDS011;2901;42.140;24.760;2024-01-06T11:24:50;52.70;;;17.35;;
5752;SDS011;2901;42.140;24.760;2024-01-06T11:27:20;29.75;;;15.20;;
5752;SDS011;2901;42.140;24.760;2024-01-06T11:29:48;26.45;;;15.90;;
5752;SDS011;2901;42.140;24.760;2024-01-06T11:32:16;18.10;;;15.00;;
5752;SDS011;2901;42.140;24.760;2024-01-06T11:34:43;17.80;;;14.57;;
5752;SDS011;2901;42.140;24.760;2024-01-06T11:37:13;25.92;;;15.43;;
5752;SDS011;2901;42.140;24.760;2024-01-06T11:39:40;36.90;;;17.48;;
5752;SDS011;2901;42.140;24.760;2024-01-06T11:42:09;29.02;;;16.13;;
5752;SDS011;2901;42.140;24.760;2024-01-06T11:44:36;22.55;;;13.93;;
5752;SDS011;2901;42.140;24.760;2024-01-06T11:47:03;25.13;;;13.82;;
5752;SDS011;2901;42.140;24.760;2024-01-06T11:49:29;26.77;;;15.27;;
5752;SDS011;2901;42.140;24.760;2024-01-06T11:51:55;19.83;;;14.18;;
5752;SDS011;2901;42.140;24.760;2024-01-06T11:54:22;20.20;;;14.02;;
5752;SDS011;2901;42.140;24.760;2024-01-06T11:56:48;32.70;;;15.82;;
5752;SDS011;2901;42.140;24.760;2024-01-06T11:59:13;26.50;;;15.48;;
5752;SDS011;2901;42.140;24.760;2024-01-06T12:01:39;26.65;;;15.95;;
5752;SDS011;2901;42.140;24.760;2024-01-06T12:04:05;20.23;;;16.75;;
5752;SDS011;2901;42.140;24.760;2024-01-06T12:06:31;29.98;;;17.33;;
5752;SDS011;2901;42.140;24.760;2024-01-06T12:09:07;19.58;;;14.95;;
5752;SDS011;2901;42.140;24.760;2024-01-06T12:11:34;34.40;;;16.17;;
5752;SDS011;2901;42.140;24.760;2024-01-06T12:13:59;21.77;;;15.32;;
5752;SDS011;2901;42.140;24.760;2024-01-06T12:16:25;24.58;;;16.42;;
5752;SDS011;2901;42.140;24.760;2024-01-06T12:18:54;19.90;;;16.42;;
5752;SDS011;2901;42.140;24.760;2024-01-06T12:21:23;19.88;;;16.52;;
5752;SDS011;2901;42.140;24.760;2024-01-06T12:23:49;28.45;;;16.77;;
5752;SDS011;2901;42.140;24.760;2024-01-06T12:26:16;29.83;;;16.77;;
5752;SDS011;2901;42.140;24.760;2024-01-06T12:28:44;21.33;;;17.05;;
5752;SDS011;2901;42.140;24.760;2024-01-06T12:31:10;31.27;;;16.85;;
5752;SDS011;2901;42.140;24.760;2024-01-06T12:33:37;23.67;;;16.77;;
5752;SDS011;2901;42.140;24.760;2024-01-06T12:36:04;33.83;;;16.60;;
5752;SDS011;2901;42.140;24.760;2024-01-06T12:38:31;22.80;;;16.75;;
5752;SDS011;2901;42.140;24.760;2024-01-06T12:40:56;36.55;;;17.80;;
5752;SDS011;2901;42.140;24.760;2024-01-06T12:43:22;32.05;;;17.50;;
5752;SDS011;2901;42.140;24.760;2024-01-06T12:45:47;26.60;;;16.13;;
5752;SDS011;2901;42.140;24.760;2024-01-06T12:48:12;20.25;;;14.13;;
5752;SDS011;2901;42.140;24.760;2024-01-06T12:50:38;22.05;;;15.18;;
5752;SDS011;2901;42.140;24.760;2024-01-06T12:53:03;19.45;;;15.15;;
5752;SDS011;2901;42.140;24.760;2024-01-06T12:55:29;20.38;;;16.73;;
5752;SDS011;2901;42.140;24.760;2024-01-06T12:57:54;24.17;;;16.25;;
5752;SDS011;2901;42.140;24.760;2024-01-06T13:00:19;27.67;;;16.13;;
5752;SDS011;2901;42.140;24.760;2024-01-06T13:02:45;19.35;;;14.48;;
5752;SDS011;2901;42.140;24.760;2024-01-06T13:05:10;20.38;;;14.55;;
5752;SDS011;2901;42.140;24.760;2024-01-06T13:07:37;20.35;;;13.55;;
5752;SDS011;2901;42.140;24.760;2024-01-06T13:10:04;21.77;;;13.95;;
5752;SDS011;2901;42.140;24.760;2024-01-06T13:12:30;24.80;;;15.70;;
5752;SDS011;2901;42.140;24.760;2024-01-06T13:14:55;15.77;;;12.23;;
5752;SDS011;2901;42.140;24.760;2024-01-06T13:17:21;17.98;;;12.98;;
5752;SDS011;2901;42.140;24.760;2024-01-06T13:19:46;24.65;;;11.85;;
5752;SDS011;2901;42.140;24.760;2024-01-06T13:22:12;13.07;;;10.73;;
5752;SDS011;2901;42.140;24.760;2024-01-06T13:24:38;13.73;;;10.82;;
5752;SDS011;2901;42.140;24.760;2024-01-06T13:27:05;13.77;;;11.02;;
5752;SDS011;2901;42.140;24.760;2024-01-06T13:29:31;15.43;;;9.50;;
5752;SDS011;2901;42.140;24.760;2024-01-06T13:31:57;14.23;;;11.02;;
5752;SDS011;2901;42.140;24.760;2024-01-06T13:34:24;16.60;;;13.48;;
5752;SDS011;2901;42.140;24.760;2024-01-06T13:36:49;15.55;;;10.60;;
5752;SDS011;2901;42.140;24.760;2024-01-06T13:39:15;15.65;;;9.98;;
5752;SDS011;2901;42.140;24.760;2024-01-06T13:41:45;12.10;;;9.70;;
5752;SDS011;2901;42.140;24.760;2024-01-06T13:44:12;10.45;;;9.35;;
5752;SDS011;2901;42.140;24.760;2024-01-06T13:46:38;11.50;;;9.55;;
5752;SDS011;2901;42.140;24.760;2024-01-06T13:49:06;10.60;;;9.48;;
5752;SDS011;2901;42.140;24.760;2024-01-06T13:51:31;12.43;;;9.18;;
5752;SDS011;2901;42.140;24.760;2024-01-06T13:53:57;17.13;;;9.88;;
5752;SDS011;2901;42.140;24.760;2024-01-06T13:56:23;10.50;;;9.38;;
5752;SDS011;2901;42.140;24.760;2024-01-06T13:58:48;11.68;;;9.07;;
5752;SDS011;2901;42.140;24.760;2024-01-06T14:01:14;10.50;;;9.52;;
5752;SDS011;2901;42.140;24.760;2024-01-06T14:03:39;13.23;;;9.70;;
5752;SDS011;2901;42.140;24.760;2024-01-06T14:06:05;14.82;;;9.20;;
5752;SDS011;2901;42.140;24.760;2024-01-06T14:08:32;14.90;;;8.95;;
5752;SDS011;2901;42.140;24.760;2024-01-06T14:10:57;7.55;;;6.93;;
5752;SDS011;2901;42.140;24.760;2024-01-06T14:13:23;8.40;;;7.70;;
5752;SDS011;2901;42.140;24.760;2024-01-06T14:15:48;8.27;;;7.63;;
5752;SDS011;2901;42.140;24.760;2024-01-06T14:18:13;8.45;;;7.57;;
5752;SDS011;2901;42.140;24.760;2024-01-06T14:20:41;10.73;;;7.57;;
5752;SDS011;2901;42.140;24.760;2024-01-06T14:23:06;8.40;;;7.70;;
5752;SDS011;2901;42.140;24.760;2024-01-06T14:25:32;9.07;;;7.38;;
5752;SDS011;2901;42.140;24.760;2024-01-06T14:27:57;12.20;;;8.32;;
5752;SDS011;2901;42.140;24.760;2024-01-06T14:30:23;15.15;;;10.02;;
5752;SDS011;2901;42.140;24.760;2024-01-06T14:32:48;11.57;;;9.98;;